메인 페이지
METAR-TAF:

METAR-TAF

공항 :

마드리드 바라하스 국제공항

마드리드, 스페인

위도: 40-27N, 경도: 003-33W, 고도: 609m

현재 날씨관측

예보는 38분 전, 05:00시(UTC)에 발표되었습니다.
동북동3kt북북동풍과 풍을 오가는
온도 19°C
습도 64%
기압 1018 hPa
시정 10km 이상
1500m 미만 상공 구름 및 적란운 없음

METAR: LEMD 230500Z 07003KT 030V100 CAVOK 19/12 Q1018 NOSIG

시각: 07:38 (05:38 UTC)

예보

예보는 6 시간 38분 전, 23:00시(UTC)에 발표되었습니다.
예보 대상 시간: 23일 00시부터 24일 06시까지 (UTC)
북동6kt
시정 10km 이상
1500m 미만 상공 구름 및 적란운 없음
전환 중
23일 12시부터 23일 14시까지 (UTC)
남남서10kt
확률 30% :
일시적
23일 12시부터 23일 18시까지 (UTC)
남남서15kt, 순간 최대 풍속 25kt
전환 중
23일 22시부터 23일 24시까지 (UTC)
여러 방향의 바람 4kt

TAF: LEMD 222300Z 2300/2406 04006KT CAVOK TX35/2315Z TN17/2306Z BECMG 2312/2314 20010KT PROB30 TEMPO 2312/2318 20015G25KT BECMG 2322/2324 VRB04KT

4,000개 이상의 공항 관측 자료 및 예보 (METAR 및 TAF 보고).

지도상에서 검색 가능한 기상관측소가 노란 점과 빨간 점으로 표시되어 있습니다.

기상관측소 명을 보려면 표시 위로 마우스를 이동하세요.

날씨 관측과 예보를 보려면 클릭하세요.

지도 변경 : 확대하려면 엑스 표시가 있는 녹색 버튼, 축소하려면 빼기 표시가 있는 녹색 버튼, 다음 페이지의 지도를 보려면 녹색 화살표를 클릭하세요.


METAR-TAF: